sensor_id;sensor_type;location;lat;lon;timestamp;P1;durP1;ratioP1;P2;durP2;ratioP2
8399;SDS011;4237;47.030;15.396;2023-02-28T00:01:48;6.13;;;4.00;;
8399;SDS011;4237;47.030;15.396;2023-02-28T00:04:17;5.53;;;4.17;;
8399;SDS011;4237;47.030;15.396;2023-02-28T00:06:45;6.97;;;4.53;;
8399;SDS011;4237;47.030;15.396;2023-02-28T00:09:14;6.40;;;4.57;;
8399;SDS011;4237;47.030;15.396;2023-02-28T00:11:42;6.90;;;4.40;;
8399;SDS011;4237;47.030;15.396;2023-02-28T00:14:11;5.17;;;4.03;;
8399;SDS011;4237;47.030;15.396;2023-02-28T00:16:40;6.97;;;4.50;;
8399;SDS011;4237;47.030;15.396;2023-02-28T00:19:08;5.80;;;4.13;;
8399;SDS011;4237;47.030;15.396;2023-02-28T00:21:39;7.60;;;4.10;;
8399;SDS011;4237;47.030;15.396;2023-02-28T00:24:07;5.07;;;3.47;;
8399;SDS011;4237;47.030;15.396;2023-02-28T00:26:36;5.50;;;4.23;;
8399;SDS011;4237;47.030;15.396;2023-02-28T00:29:04;5.73;;;3.60;;
8399;SDS011;4237;47.030;15.396;2023-02-28T00:31:33;4.87;;;4.13;;
8399;SDS011;4237;47.030;15.396;2023-02-28T00:34:01;7.60;;;4.50;;
8399;SDS011;4237;47.030;15.396;2023-02-28T00:36:30;5.73;;;4.30;;
8399;SDS011;4237;47.030;15.396;2023-02-28T00:38:58;5.77;;;4.27;;
8399;SDS011;4237;47.030;15.396;2023-02-28T00:41:27;8.93;;;4.53;;
8399;SDS011;4237;47.030;15.396;2023-02-28T00:43:56;7.90;;;4.40;;
8399;SDS011;4237;47.030;15.396;2023-02-28T00:46:24;6.43;;;4.07;;
8399;SDS011;4237;47.030;15.396;2023-02-28T00:51:41;5.63;;;4.00;;
8399;SDS011;4237;47.030;15.396;2023-02-28T00:54:10;5.40;;;4.17;;
8399;SDS011;4237;47.030;15.396;2023-02-28T00:56:38;5.20;;;3.57;;
8399;SDS011;4237;47.030;15.396;2023-02-28T00:59:07;4.57;;;3.43;;
8399;SDS011;4237;47.030;15.396;2023-02-28T01:01:36;7.00;;;4.40;;
8399;SDS011;4237;47.030;15.396;2023-02-28T01:04:05;7.57;;;4.20;;
8399;SDS011;4237;47.030;15.396;2023-02-28T01:06:33;4.83;;;3.87;;
8399;SDS011;4237;47.030;15.396;2023-02-28T01:09:04;7.53;;;3.90;;
8399;SDS011;4237;47.030;15.396;2023-02-28T01:11:33;7.43;;;4.80;;
8399;SDS011;4237;47.030;15.396;2023-02-28T01:14:03;4.50;;;3.80;;
8399;SDS011;4237;47.030;15.396;2023-02-28T01:16:32;6.20;;;4.57;;
8399;SDS011;4237;47.030;15.396;2023-02-28T01:19:01;4.10;;;3.53;;
8399;SDS011;4237;47.030;15.396;2023-02-28T01:21:29;6.07;;;4.07;;
8399;SDS011;4237;47.030;15.396;2023-02-28T01:23:59;8.37;;;4.60;;
8399;SDS011;4237;47.030;15.396;2023-02-28T01:26:28;5.30;;;4.07;;
8399;SDS011;4237;47.030;15.396;2023-02-28T01:28:57;6.27;;;3.93;;
8399;SDS011;4237;47.030;15.396;2023-02-28T01:31:26;5.60;;;4.20;;
8399;SDS011;4237;47.030;15.396;2023-02-28T01:33:55;9.63;;;4.30;;
8399;SDS011;4237;47.030;15.396;2023-02-28T01:36:24;8.10;;;4.73;;
8399;SDS011;4237;47.030;15.396;2023-02-28T01:38:53;7.40;;;4.07;;
8399;SDS011;4237;47.030;15.396;2023-02-28T01:41:23;5.00;;;3.90;;
8399;SDS011;4237;47.030;15.396;2023-02-28T01:46:45;6.40;;;4.50;;
8399;SDS011;4237;47.030;15.396;2023-02-28T01:49:14;5.77;;;4.33;;
8399;SDS011;4237;47.030;15.396;2023-02-28T01:51:45;5.97;;;4.47;;
8399;SDS011;4237;47.030;15.396;2023-02-28T01:54:22;5.67;;;4.20;;
8399;SDS011;4237;47.030;15.396;2023-02-28T01:57:02;5.07;;;3.87;;
8399;SDS011;4237;47.030;15.396;2023-02-28T01:59:43;6.53;;;3.97;;
8399;SDS011;4237;47.030;15.396;2023-02-28T02:02:20;4.13;;;3.70;;
8399;SDS011;4237;47.030;15.396;2023-02-28T02:04:58;4.20;;;3.80;;
8399;SDS011;4237;47.030;15.396;2023-02-28T02:07:41;4.17;;;3.77;;
8399;SDS011;4237;47.030;15.396;2023-02-28T02:15:37;5.87;;;4.13;;
8399;SDS011;4237;47.030;15.396;2023-02-28T02:18:18;8.03;;;4.10;;
8399;SDS011;4237;47.030;15.396;2023-02-28T02:21:39;4.63;;;3.80;;
8399;SDS011;4237;47.030;15.396;2023-02-28T02:26:37;5.83;;;3.93;;
8399;SDS011;4237;47.030;15.396;2023-02-28T02:34:48;6.73;;;4.30;;
8399;SDS011;4237;47.030;15.396;2023-02-28T02:37:36;4.57;;;4.00;;
8399;SDS011;4237;47.030;15.396;2023-02-28T02:42:41;4.47;;;3.97;;
8399;SDS011;4237;47.030;15.396;2023-02-28T02:45:21;4.43;;;3.57;;
8399;SDS011;4237;47.030;15.396;2023-02-28T02:47:46;6.27;;;4.20;;
8399;SDS011;4237;47.030;15.396;2023-02-28T02:50:18;6.63;;;3.47;;
8399;SDS011;4237;47.030;15.396;2023-02-28T02:52:55;6.33;;;3.70;;
8399;SDS011;4237;47.030;15.396;2023-02-28T02:55:25;5.37;;;3.93;;
8399;SDS011;4237;47.030;15.396;2023-02-28T02:57:57;4.63;;;3.90;;
8399;SDS011;4237;47.030;15.396;2023-02-28T03:00:38;4.60;;;3.77;;
8399;SDS011;4237;47.030;15.396;2023-02-28T03:03:03;5.77;;;4.10;;
8399;SDS011;4237;47.030;15.396;2023-02-28T03:05:35;4.77;;;3.83;;
8399;SDS011;4237;47.030;15.396;2023-02-28T03:08:08;5.77;;;3.90;;
8399;SDS011;4237;47.030;15.396;2023-02-28T03:10:39;5.07;;;3.67;;
8399;SDS011;4237;47.030;15.396;2023-02-28T03:16:09;4.97;;;4.00;;
8399;SDS011;4237;47.030;15.396;2023-02-28T03:18:45;4.80;;;3.57;;
8399;SDS011;4237;47.030;15.396;2023-02-28T03:21:15;4.30;;;3.60;;
8399;SDS011;4237;47.030;15.396;2023-02-28T03:24:19;6.00;;;4.00;;
8399;SDS011;4237;47.030;15.396;2023-02-28T03:27:03;8.33;;;3.80;;
8399;SDS011;4237;47.030;15.396;2023-02-28T03:29:34;6.10;;;4.30;;
8399;SDS011;4237;47.030;15.396;2023-02-28T03:32:25;8.47;;;5.40;;
8399;SDS011;4237;47.030;15.396;2023-02-28T03:35:14;14.17;;;6.37;;
8399;SDS011;4237;47.030;15.396;2023-02-28T03:37:45;14.17;;;7.67;;
8399;SDS011;4237;47.030;15.396;2023-02-28T03:40:17;14.67;;;7.37;;
8399;SDS011;4237;47.030;15.396;2023-02-28T03:42:48;14.10;;;7.17;;
8399;SDS011;4237;47.030;15.396;2023-02-28T03:45:24;11.47;;;7.00;;
8399;SDS011;4237;47.030;15.396;2023-02-28T03:47:58;10.83;;;6.10;;
8399;SDS011;4237;47.030;15.396;2023-02-28T03:53:11;7.90;;;5.73;;
8399;SDS011;4237;47.030;15.396;2023-02-28T03:55:42;7.37;;;4.90;;
8399;SDS011;4237;47.030;15.396;2023-02-28T04:01:07;6.00;;;4.70;;
8399;SDS011;4237;47.030;15.396;2023-02-28T04:03:35;6.83;;;5.00;;
8399;SDS011;4237;47.030;15.396;2023-02-28T04:06:07;7.23;;;5.10;;
8399;SDS011;4237;47.030;15.396;2023-02-28T04:08:37;8.20;;;4.87;;
8399;SDS011;4237;47.030;15.396;2023-02-28T04:11:41;8.60;;;4.90;;
8399;SDS011;4237;47.030;15.396;2023-02-28T04:13:46;5.33;;;4.13;;
8399;SDS011;4237;47.030;15.396;2023-02-28T04:16:15;7.17;;;4.63;;
8399;SDS011;4237;47.030;15.396;2023-02-28T04:18:44;7.77;;;4.70;;
8399;SDS011;4237;47.030;15.396;2023-02-28T04:21:13;8.07;;;4.63;;
8399;SDS011;4237;47.030;15.396;2023-02-28T04:23:41;6.23;;;4.43;;
8399;SDS011;4237;47.030;15.396;2023-02-28T04:26:10;6.23;;;4.57;;
8399;SDS011;4237;47.030;15.396;2023-02-28T04:28:38;6.03;;;4.57;;
8399;SDS011;4237;47.030;15.396;2023-02-28T04:31:08;5.93;;;4.57;;
8399;SDS011;4237;47.030;15.396;2023-02-28T04:33:37;5.80;;;4.60;;
8399;SDS011;4237;47.030;15.396;2023-02-28T04:36:07;7.53;;;4.67;;
8399;SDS011;4237;47.030;15.396;2023-02-28T04:38:37;6.63;;;4.63;;
8399;SDS011;4237;47.030;15.396;2023-02-28T04:41:06;7.23;;;4.67;;
8399;SDS011;4237;47.030;15.396;2023-02-28T04:43:35;6.43;;;4.50;;
8399;SDS011;4237;47.030;15.396;2023-02-28T04:46:04;5.53;;;4.60;;
8399;SDS011;4237;47.030;15.396;2023-02-28T04:48:34;9.47;;;4.93;;
8399;SDS011;4237;47.030;15.396;2023-02-28T04:51:11;8.67;;;5.20;;
8399;SDS011;4237;47.030;15.396;2023-02-28T04:53:37;8.87;;;4.70;;
8399;SDS011;4237;47.030;15.396;2023-02-28T04:56:07;5.87;;;5.03;;
8399;SDS011;4237;47.030;15.396;2023-02-28T04:58:37;8.17;;;4.93;;
8399;SDS011;4237;47.030;15.396;2023-02-28T05:01:14;8.23;;;5.50;;
8399;SDS011;4237;47.030;15.396;2023-02-28T05:03:44;11.57;;;5.67;;
8399;SDS011;4237;47.030;15.396;2023-02-28T05:06:13;9.23;;;5.67;;
8399;SDS011;4237;47.030;15.396;2023-02-28T05:08:42;10.47;;;6.77;;
8399;SDS011;4237;47.030;15.396;2023-02-28T05:11:21;9.97;;;6.00;;
8399;SDS011;4237;47.030;15.396;2023-02-28T05:13:52;8.17;;;6.10;;
8399;SDS011;4237;47.030;15.396;2023-02-28T05:16:21;9.13;;;5.87;;
8399;SDS011;4237;47.030;15.396;2023-02-28T05:18:49;8.60;;;5.73;;
8399;SDS011;4237;47.030;15.396;2023-02-28T05:21:31;8.83;;;5.93;;
8399;SDS011;4237;47.030;15.396;2023-02-28T05:23:54;9.10;;;6.00;;
8399;SDS011;4237;47.030;15.396;2023-02-28T05:26:25;11.83;;;6.20;;
8399;SDS011;4237;47.030;15.396;2023-02-28T05:28:55;9.57;;;5.80;;
8399;SDS011;4237;47.030;15.396;2023-02-28T05:31:24;7.40;;;5.53;;
8399;SDS011;4237;47.030;15.396;2023-02-28T05:33:52;8.90;;;6.30;;
8399;SDS011;4237;47.030;15.396;2023-02-28T05:36:21;9.20;;;6.27;;
8399;SDS011;4237;47.030;15.396;2023-02-28T05:38:51;8.50;;;6.27;;
8399;SDS011;4237;47.030;15.396;2023-02-28T05:41:20;10.97;;;7.00;;
8399;SDS011;4237;47.030;15.396;2023-02-28T05:43:49;10.17;;;6.90;;
8399;SDS011;4237;47.030;15.396;2023-02-28T05:46:17;16.77;;;8.10;;
8399;SDS011;4237;47.030;15.396;2023-02-28T05:48:46;14.30;;;6.97;;
8399;SDS011;4237;47.030;15.396;2023-02-28T05:51:16;10.57;;;6.50;;
8399;SDS011;4237;47.030;15.396;2023-02-28T05:53:45;10.10;;;7.20;;
8399;SDS011;4237;47.030;15.396;2023-02-28T05:56:15;10.87;;;6.70;;
8399;SDS011;4237;47.030;15.396;2023-02-28T05:58:43;11.17;;;7.47;;
8399;SDS011;4237;47.030;15.396;2023-02-28T06:01:22;11.37;;;6.87;;
8399;SDS011;4237;47.030;15.396;2023-02-28T06:03:53;10.93;;;7.00;;
8399;SDS011;4237;47.030;15.396;2023-02-28T06:06:22;11.20;;;7.60;;
8399;SDS011;4237;47.030;15.396;2023-02-28T06:08:50;11.13;;;7.17;;
8399;SDS011;4237;47.030;15.396;2023-02-28T06:11:19;12.87;;;6.70;;
8399;SDS011;4237;47.030;15.396;2023-02-28T06:13:47;13.77;;;7.27;;
8399;SDS011;4237;47.030;15.396;2023-02-28T06:16:16;10.87;;;6.60;;
8399;SDS011;4237;47.030;15.396;2023-02-28T06:18:45;14.87;;;7.27;;
8399;SDS011;4237;47.030;15.396;2023-02-28T06:21:13;10.90;;;7.40;;
8399;SDS011;4237;47.030;15.396;2023-02-28T06:23:42;15.10;;;8.40;;
8399;SDS011;4237;47.030;15.396;2023-02-28T06:26:12;16.07;;;8.60;;
8399;SDS011;4237;47.030;15.396;2023-02-28T06:28:41;11.63;;;7.40;;
8399;SDS011;4237;47.030;15.396;2023-02-28T06:31:10;15.80;;;6.90;;
8399;SDS011;4237;47.030;15.396;2023-02-28T06:33:41;13.63;;;7.63;;
8399;SDS011;4237;47.030;15.396;2023-02-28T06:36:12;12.13;;;7.53;;
8399;SDS011;4237;47.030;15.396;2023-02-28T06:38:42;14.63;;;8.07;;
8399;SDS011;4237;47.030;15.396;2023-02-28T06:41:11;12.57;;;7.30;;
8399;SDS011;4237;47.030;15.396;2023-02-28T06:43:41;13.23;;;7.47;;
8399;SDS011;4237;47.030;15.396;2023-02-28T06:46:11;11.30;;;7.23;;
8399;SDS011;4237;47.030;15.396;2023-02-28T06:48:46;13.37;;;7.07;;
8399;SDS011;4237;47.030;15.396;2023-02-28T06:51:13;12.90;;;7.73;;
8399;SDS011;4237;47.030;15.396;2023-02-28T06:53:43;10.87;;;7.23;;
8399;SDS011;4237;47.030;15.396;2023-02-28T06:56:13;11.47;;;7.30;;
8399;SDS011;4237;47.030;15.396;2023-02-28T06:58:45;11.27;;;6.80;;
8399;SDS011;4237;47.030;15.396;2023-02-28T07:01:17;12.87;;;7.20;;
8399;SDS011;4237;47.030;15.396;2023-02-28T07:03:47;10.80;;;7.43;;
8399;SDS011;4237;47.030;15.396;2023-02-28T07:06:22;9.50;;;7.07;;
8399;SDS011;4237;47.030;15.396;2023-02-28T07:08:50;12.10;;;7.90;;
8399;SDS011;4237;47.030;15.396;2023-02-28T07:11:20;13.80;;;7.90;;
8399;SDS011;4237;47.030;15.396;2023-02-28T07:13:55;10.43;;;7.47;;
8399;SDS011;4237;47.030;15.396;2023-02-28T07:16:24;11.50;;;7.60;;
8399;SDS011;4237;47.030;15.396;2023-02-28T07:18:53;12.30;;;8.13;;
8399;SDS011;4237;47.030;15.396;2023-02-28T07:21:22;13.33;;;8.17;;
8399;SDS011;4237;47.030;15.396;2023-02-28T07:23:51;15.07;;;7.80;;
8399;SDS011;4237;47.030;15.396;2023-02-28T07:26:20;10.90;;;7.60;;
8399;SDS011;4237;47.030;15.396;2023-02-28T07:28:48;10.77;;;7.83;;
8399;SDS011;4237;47.030;15.396;2023-02-28T07:31:17;12.93;;;7.90;;
8399;SDS011;4237;47.030;15.396;2023-02-28T07:33:47;18.27;;;7.50;;
8399;SDS011;4237;47.030;15.396;2023-02-28T07:36:16;17.13;;;7.80;;
8399;SDS011;4237;47.030;15.396;2023-02-28T07:38:47;12.97;;;8.20;;
8399;SDS011;4237;47.030;15.396;2023-02-28T07:41:17;10.57;;;7.63;;
8399;SDS011;4237;47.030;15.396;2023-02-28T07:43:47;20.97;;;8.40;;
8399;SDS011;4237;47.030;15.396;2023-02-28T07:46:16;13.67;;;8.80;;
8399;SDS011;4237;47.030;15.396;2023-02-28T07:48:47;16.53;;;9.07;;
8399;SDS011;4237;47.030;15.396;2023-02-28T07:51:15;15.67;;;8.90;;
8399;SDS011;4237;47.030;15.396;2023-02-28T07:53:45;12.53;;;9.43;;
8399;SDS011;4237;47.030;15.396;2023-02-28T07:56:13;12.47;;;8.30;;
8399;SDS011;4237;47.030;15.396;2023-02-28T07:58:42;11.37;;;7.70;;
8399;SDS011;4237;47.030;15.396;2023-02-28T08:01:11;19.47;;;8.57;;
8399;SDS011;4237;47.030;15.396;2023-02-28T08:03:40;9.80;;;7.30;;
8399;SDS011;4237;47.030;15.396;2023-02-28T08:06:16;14.30;;;8.50;;
8399;SDS011;4237;47.030;15.396;2023-02-28T08:08:46;12.20;;;8.00;;
8399;SDS011;4237;47.030;15.396;2023-02-28T08:11:16;13.57;;;7.53;;
8399;SDS011;4237;47.030;15.396;2023-02-28T08:13:45;15.37;;;8.63;;
8399;SDS011;4237;47.030;15.396;2023-02-28T08:16:14;13.33;;;8.07;;
8399;SDS011;4237;47.030;15.396;2023-02-28T08:18:44;13.63;;;9.03;;
8399;SDS011;4237;47.030;15.396;2023-02-28T08:21:13;12.57;;;8.83;;
8399;SDS011;4237;47.030;15.396;2023-02-28T08:23:42;14.47;;;8.80;;
8399;SDS011;4237;47.030;15.396;2023-02-28T08:26:10;12.53;;;8.40;;
8399;SDS011;4237;47.030;15.396;2023-02-28T08:28:39;14.07;;;8.97;;
8399;SDS011;4237;47.030;15.396;2023-02-28T08:31:12;15.30;;;8.73;;
8399;SDS011;4237;47.030;15.396;2023-02-28T08:33:43;12.23;;;8.73;;
8399;SDS011;4237;47.030;15.396;2023-02-28T08:36:12;12.50;;;8.77;;
8399;SDS011;4237;47.030;15.396;2023-02-28T08:38:42;14.83;;;8.50;;
8399;SDS011;4237;47.030;15.396;2023-02-28T08:41:12;13.73;;;8.47;;
8399;SDS011;4237;47.030;15.396;2023-02-28T08:43:41;12.33;;;9.10;;
8399;SDS011;4237;47.030;15.396;2023-02-28T08:46:12;11.90;;;8.97;;
8399;SDS011;4237;47.030;15.396;2023-02-28T08:48:41;14.57;;;9.40;;
8399;SDS011;4237;47.030;15.396;2023-02-28T08:51:18;14.13;;;9.17;;
8399;SDS011;4237;47.030;15.396;2023-02-28T08:53:44;13.90;;;9.40;;
8399;SDS011;4237;47.030;15.396;2023-02-28T08:56:13;16.30;;;9.47;;
8399;SDS011;4237;47.030;15.396;2023-02-28T08:58:47;18.23;;;9.47;;
8399;SDS011;4237;47.030;15.396;2023-02-28T09:01:18;13.77;;;9.23;;
8399;SDS011;4237;47.030;15.396;2023-02-28T09:03:49;12.27;;;8.97;;
8399;SDS011;4237;47.030;15.396;2023-02-28T09:06:19;12.27;;;9.00;;
8399;SDS011;4237;47.030;15.396;2023-02-28T09:08:49;13.63;;;8.83;;
8399;SDS011;4237;47.030;15.396;2023-02-28T09:11:18;14.67;;;9.50;;
8399;SDS011;4237;47.030;15.396;2023-02-28T09:13:47;14.90;;;8.97;;
8399;SDS011;4237;47.030;15.396;2023-02-28T09:16:16;13.40;;;9.13;;
8399;SDS011;4237;47.030;15.396;2023-02-28T09:18:45;13.70;;;9.50;;
8399;SDS011;4237;47.030;15.396;2023-02-28T09:21:14;13.37;;;9.43;;
8399;SDS011;4237;47.030;15.396;2023-02-28T09:23:45;17.43;;;9.77;;
8399;SDS011;4237;47.030;15.396;2023-02-28T09:26:20;16.13;;;10.00;;
8399;SDS011;4237;47.030;15.396;2023-02-28T09:28:51;14.93;;;9.80;;
8399;SDS011;4237;47.030;15.396;2023-02-28T09:31:23;13.20;;;9.23;;
8399;SDS011;4237;47.030;15.396;2023-02-28T09:33:53;17.03;;;9.67;;
8399;SDS011;4237;47.030;15.396;2023-02-28T09:36:24;15.80;;;9.57;;
8399;SDS011;4237;47.030;15.396;2023-02-28T09:38:55;15.07;;;9.60;;
8399;SDS011;4237;47.030;15.396;2023-02-28T09:41:30;14.00;;;9.70;;
8399;SDS011;4237;47.030;15.396;2023-02-28T09:43:59;15.43;;;9.60;;
8399;SDS011;4237;47.030;15.396;2023-02-28T09:46:47;13.10;;;9.47;;
8399;SDS011;4237;47.030;15.396;2023-02-28T09:49:12;18.13;;;10.00;;
8399;SDS011;4237;47.030;15.396;2023-02-28T09:51:47;13.97;;;9.70;;
8399;SDS011;4237;47.030;15.396;2023-02-28T09:54:36;12.00;;;8.93;;
8399;SDS011;4237;47.030;15.396;2023-02-28T09:57:07;14.43;;;9.90;;
8399;SDS011;4237;47.030;15.396;2023-02-28T10:03:01;15.93;;;9.90;;
8399;SDS011;4237;47.030;15.396;2023-02-28T10:05:52;17.43;;;9.87;;
8399;SDS011;4237;47.030;15.396;2023-02-28T10:08:25;13.50;;;9.33;;
8399;SDS011;4237;47.030;15.396;2023-02-28T10:10:57;16.77;;;9.30;;
8399;SDS011;4237;47.030;15.396;2023-02-28T10:13:40;13.43;;;9.07;;
8399;SDS011;4237;47.030;15.396;2023-02-28T10:16:23;15.57;;;10.33;;
8399;SDS011;4237;47.030;15.396;2023-02-28T10:19:03;14.33;;;9.73;;
8399;SDS011;4237;47.030;15.396;2023-02-28T10:21:39;13.47;;;9.80;;
8399;SDS011;4237;47.030;15.396;2023-02-28T10:24:43;16.47;;;10.40;;
8399;SDS011;4237;47.030;15.396;2023-02-28T10:26:49;19.57;;;9.90;;
8399;SDS011;4237;47.030;15.396;2023-02-28T10:29:20;13.77;;;9.67;;
8399;SDS011;4237;47.030;15.396;2023-02-28T10:31:49;13.13;;;10.03;;
8399;SDS011;4237;47.030;15.396;2023-02-28T10:34:17;15.90;;;11.20;;
8399;SDS011;4237;47.030;15.396;2023-02-28T10:36:46;13.97;;;9.67;;
8399;SDS011;4237;47.030;15.396;2023-02-28T10:39:36;17.40;;;10.43;;
8399;SDS011;4237;47.030;15.396;2023-02-28T10:42:20;17.37;;;10.33;;
8399;SDS011;4237;47.030;15.396;2023-02-28T10:45:13;13.77;;;10.47;;
8399;SDS011;4237;47.030;15.396;2023-02-28T10:47:59;14.20;;;9.37;;
8399;SDS011;4237;47.030;15.396;2023-02-28T10:50:34;18.37;;;10.40;;
8399;SDS011;4237;47.030;15.396;2023-02-28T10:58:29;16.33;;;10.13;;
8399;SDS011;4237;47.030;15.396;2023-02-28T11:00:59;15.93;;;9.97;;
8399;SDS011;4237;47.030;15.396;2023-02-28T11:03:32;20.33;;;9.97;;
8399;SDS011;4237;47.030;15.396;2023-02-28T11:06:07;16.67;;;10.90;;
8399;SDS011;4237;47.030;15.396;2023-02-28T11:08:43;15.10;;;10.30;;
8399;SDS011;4237;47.030;15.396;2023-02-28T11:11:14;20.67;;;10.70;;
8399;SDS011;4237;47.030;15.396;2023-02-28T11:13:44;15.83;;;10.43;;
8399;SDS011;4237;47.030;15.396;2023-02-28T11:16:14;15.53;;;10.30;;
8399;SDS011;4237;47.030;15.396;2023-02-28T11:18:48;14.80;;;10.07;;
8399;SDS011;4237;47.030;15.396;2023-02-28T11:21:20;17.37;;;10.57;;
8399;SDS011;4237;47.030;15.396;2023-02-28T11:23:54;17.77;;;10.60;;
8399;SDS011;4237;47.030;15.396;2023-02-28T11:26:44;16.10;;;10.13;;
8399;SDS011;4237;47.030;15.396;2023-02-28T11:32:10;16.03;;;11.27;;
8399;SDS011;4237;47.030;15.396;2023-02-28T11:34:37;17.87;;;10.87;;
8399;SDS011;4237;47.030;15.396;2023-02-28T11:37:17;18.47;;;11.40;;
8399;SDS011;4237;47.030;15.396;2023-02-28T11:39:44;13.60;;;10.20;;
8399;SDS011;4237;47.030;15.396;2023-02-28T11:59:13;15.20;;;10.30;;
8399;SDS011;4237;47.030;15.396;2023-02-28T12:07:09;18.77;;;11.83;;
8399;SDS011;4237;47.030;15.396;2023-02-28T12:10:23;15.40;;;11.43;;
8399;SDS011;4237;47.030;15.396;2023-02-28T12:12:24;18.50;;;11.20;;
8399;SDS011;4237;47.030;15.396;2023-02-28T12:20:54;15.47;;;10.17;;
8399;SDS011;4237;47.030;15.396;2023-02-28T12:28:44;18.57;;;12.37;;
8399;SDS011;4237;47.030;15.396;2023-02-28T12:31:18;18.83;;;11.73;;
8399;SDS011;4237;47.030;15.396;2023-02-28T12:33:52;21.10;;;11.47;;
8399;SDS011;4237;47.030;15.396;2023-02-28T12:36:23;16.53;;;11.80;;
8399;SDS011;4237;47.030;15.396;2023-02-28T12:38:56;17.67;;;11.40;;
8399;SDS011;4237;47.030;15.396;2023-02-28T12:41:50;16.93;;;11.70;;
8399;SDS011;4237;47.030;15.396;2023-02-28T12:44:11;17.87;;;11.43;;
8399;SDS011;4237;47.030;15.396;2023-02-28T12:46:45;25.70;;;12.17;;
8399;SDS011;4237;47.030;15.396;2023-02-28T12:49:23;17.50;;;11.40;;
8399;SDS011;4237;47.030;15.396;2023-02-28T12:51:53;17.60;;;11.53;;
8399;SDS011;4237;47.030;15.396;2023-02-28T12:54:40;18.90;;;12.00;;
8399;SDS011;4237;47.030;15.396;2023-02-28T12:57:12;15.30;;;11.17;;
8399;SDS011;4237;47.030;15.396;2023-02-28T12:59:59;17.73;;;11.57;;
8399;SDS011;4237;47.030;15.396;2023-02-28T13:09:19;17.53;;;11.30;;
8399;SDS011;4237;47.030;15.396;2023-02-28T13:11:23;17.97;;;11.67;;
8399;SDS011;4237;47.030;15.396;2023-02-28T13:14:02;16.03;;;10.63;;
8399;SDS011;4237;47.030;15.396;2023-02-28T13:19:16;17.93;;;11.53;;
8399;SDS011;4237;47.030;15.396;2023-02-28T13:21:47;18.53;;;11.40;;
8399;SDS011;4237;47.030;15.396;2023-02-28T13:29:52;17.47;;;11.80;;
8399;SDS011;4237;47.030;15.396;2023-02-28T13:40:22;18.40;;;11.63;;
8399;SDS011;4237;47.030;15.396;2023-02-28T13:42:48;15.83;;;10.90;;
8399;SDS011;4237;47.030;15.396;2023-02-28T13:47:52;17.70;;;10.97;;
8399;SDS011;4237;47.030;15.396;2023-02-28T13:50:39;15.40;;;11.37;;
8399;SDS011;4237;47.030;15.396;2023-02-28T14:07:03;17.47;;;11.40;;
8399;SDS011;4237;47.030;15.396;2023-02-28T14:09:39;15.63;;;12.20;;
8399;SDS011;4237;47.030;15.396;2023-02-28T14:18:15;11.90;;;10.57;;
8399;SDS011;4237;47.030;15.396;2023-02-28T14:20:58;15.57;;;11.73;;
8399;SDS011;4237;47.030;15.396;2023-02-28T14:23:46;14.03;;;11.40;;
8399;SDS011;4237;47.030;15.396;2023-02-28T14:29:37;13.10;;;10.83;;
8399;SDS011;4237;47.030;15.396;2023-02-28T14:32:26;13.83;;;10.87;;
8399;SDS011;4237;47.030;15.396;2023-02-28T14:37:47;13.83;;;10.83;;
8399;SDS011;4237;47.030;15.396;2023-02-28T14:40:17;15.73;;;11.70;;
8399;SDS011;4237;47.030;15.396;2023-02-28T14:42:55;15.50;;;11.17;;
8399;SDS011;4237;47.030;15.396;2023-02-28T14:45:32;13.30;;;10.13;;
8399;SDS011;4237;47.030;15.396;2023-02-28T14:48:04;14.27;;;11.10;;
8399;SDS011;4237;47.030;15.396;2023-02-28T14:50:36;34.97;;;24.47;;
8399;SDS011;4237;47.030;15.396;2023-02-28T14:53:05;13.67;;;10.73;;
8399;SDS011;4237;47.030;15.396;2023-02-28T14:55:36;13.03;;;10.37;;
8399;SDS011;4237;47.030;15.396;2023-02-28T14:58:06;12.83;;;9.47;;
8399;SDS011;4237;47.030;15.396;2023-02-28T15:00:37;12.70;;;9.83;;
8399;SDS011;4237;47.030;15.396;2023-02-28T15:03:18;13.50;;;10.30;;
8399;SDS011;4237;47.030;15.396;2023-02-28T15:05:47;12.77;;;10.03;;
8399;SDS011;4237;47.030;15.396;2023-02-28T15:08:15;12.23;;;10.13;;
8399;SDS011;4237;47.030;15.396;2023-02-28T15:10:45;11.80;;;9.77;;
8399;SDS011;4237;47.030;15.396;2023-02-28T15:13:26;13.23;;;9.40;;
8399;SDS011;4237;47.030;15.396;2023-02-28T15:16:00;14.23;;;10.20;;
8399;SDS011;4237;47.030;15.396;2023-02-28T15:18:41;13.10;;;9.93;;
8399;SDS011;4237;47.030;15.396;2023-02-28T15:21:21;15.47;;;10.87;;
8399;SDS011;4237;47.030;15.396;2023-02-28T15:23:57;13.70;;;9.87;;
8399;SDS011;4237;47.030;15.396;2023-02-28T15:26:32;14.13;;;9.90;;
8399;SDS011;4237;47.030;15.396;2023-02-28T15:29:19;11.40;;;8.60;;
8399;SDS011;4237;47.030;15.396;2023-02-28T15:31:35;13.80;;;10.30;;
8399;SDS011;4237;47.030;15.396;2023-02-28T15:34:06;11.53;;;9.70;;
8399;SDS011;4237;47.030;15.396;2023-02-28T15:36:36;12.33;;;9.33;;
8399;SDS011;4237;47.030;15.396;2023-02-28T15:39:24;12.63;;;9.93;;
8399;SDS011;4237;47.030;15.396;2023-02-28T15:42:10;14.80;;;10.57;;
8399;SDS011;4237;47.030;15.396;2023-02-28T15:44:40;12.27;;;9.37;;
8399;SDS011;4237;47.030;15.396;2023-02-28T15:47:15;15.23;;;10.47;;
8399;SDS011;4237;47.030;15.396;2023-02-28T15:49:54;15.43;;;10.17;;
8399;SDS011;4237;47.030;15.396;2023-02-28T15:52:37;11.47;;;8.50;;
8399;SDS011;4237;47.030;15.396;2023-02-28T15:55:11;15.00;;;9.23;;
8399;SDS011;4237;47.030;15.396;2023-02-28T15:57:59;14.80;;;10.20;;
8399;SDS011;4237;47.030;15.396;2023-02-28T16:00:29;17.77;;;11.03;;
8399;SDS011;4237;47.030;15.396;2023-02-28T16:03:01;15.07;;;11.00;;
8399;SDS011;4237;47.030;15.396;2023-02-28T16:05:34;18.37;;;11.30;;
8399;SDS011;4237;47.030;15.396;2023-02-28T16:08:17;17.63;;;11.00;;
8399;SDS011;4237;47.030;15.396;2023-02-28T16:10:43;14.60;;;9.93;;
8399;SDS011;4237;47.030;15.396;2023-02-28T16:13:11;16.03;;;10.77;;
8399;SDS011;4237;47.030;15.396;2023-02-28T16:15:43;19.03;;;11.63;;
8399;SDS011;4237;47.030;15.396;2023-02-28T16:18:12;17.00;;;10.77;;
8399;SDS011;4237;47.030;15.396;2023-02-28T16:20:42;16.43;;;11.80;;
8399;SDS011;4237;47.030;15.396;2023-02-28T16:23:11;19.40;;;10.87;;
8399;SDS011;4237;47.030;15.396;2023-02-28T16:25:40;18.23;;;10.77;;
8399;SDS011;4237;47.030;15.396;2023-02-28T16:28:18;15.20;;;10.70;;
8399;SDS011;4237;47.030;15.396;2023-02-28T16:30:50;17.73;;;10.57;;
8399;SDS011;4237;47.030;15.396;2023-02-28T16:33:19;16.90;;;10.30;;
8399;SDS011;4237;47.030;15.396;2023-02-28T16:35:48;17.90;;;10.70;;
8399;SDS011;4237;47.030;15.396;2023-02-28T16:38:17;20.10;;;10.40;;
8399;SDS011;4237;47.030;15.396;2023-02-28T16:40:49;21.27;;;11.30;;
8399;SDS011;4237;47.030;15.396;2023-02-28T16:43:20;18.77;;;12.50;;
8399;SDS011;4237;47.030;15.396;2023-02-28T16:45:56;96.97;;;50.43;;
8399;SDS011;4237;47.030;15.396;2023-02-28T16:48:26;266.63;;;116.13;;
8399;SDS011;4237;47.030;15.396;2023-02-28T16:50:55;68.83;;;30.83;;
8399;SDS011;4237;47.030;15.396;2023-02-28T16:53:24;51.53;;;25.27;;
8399;SDS011;4237;47.030;15.396;2023-02-28T16:55:55;24.37;;;13.53;;
8399;SDS011;4237;47.030;15.396;2023-02-28T16:58:24;61.23;;;28.80;;
8399;SDS011;4237;47.030;15.396;2023-02-28T17:00:56;34.73;;;20.60;;
8399;SDS011;4237;47.030;15.396;2023-02-28T17:03:26;30.70;;;19.37;;
8399;SDS011;4237;47.030;15.396;2023-02-28T17:05:56;22.63;;;15.90;;
8399;SDS011;4237;47.030;15.396;2023-02-28T17:08:25;22.97;;;14.77;;
8399;SDS011;4237;47.030;15.396;2023-02-28T17:10:56;26.93;;;16.27;;
8399;SDS011;4237;47.030;15.396;2023-02-28T17:13:25;25.40;;;15.20;;
8399;SDS011;4237;47.030;15.396;2023-02-28T17:15:55;32.80;;;24.07;;
8399;SDS011;4237;47.030;15.396;2023-02-28T17:18:23;31.47;;;18.87;;
8399;SDS011;4237;47.030;15.396;2023-02-28T17:20:53;28.27;;;16.77;;
8399;SDS011;4237;47.030;15.396;2023-02-28T17:23:22;28.90;;;20.80;;
8399;SDS011;4237;47.030;15.396;2023-02-28T17:25:51;30.80;;;18.23;;